sensor_id;sensor_type;location;lat;lon;timestamp;temperature;humidity
64634;DHT22;51043;52.406;9.690;2023-04-07T00:01:46;4.70;99.90
64634;DHT22;51043;52.406;9.690;2023-04-07T00:04:14;4.80;99.90
64634;DHT22;51043;52.406;9.690;2023-04-07T00:06:42;4.70;99.90
64634;DHT22;51043;52.406;9.690;2023-04-07T00:09:10;4.70;99.90
64634;DHT22;51043;52.406;9.690;2023-04-07T00:11:38;4.70;99.90
64634;DHT22;51043;52.406;9.690;2023-04-07T00:14:07;4.70;99.90
64634;DHT22;51043;52.406;9.690;2023-04-07T00:16:35;4.60;99.90
64634;DHT22;51043;52.406;9.690;2023-04-07T00:19:04;4.50;99.90
64634;DHT22;51043;52.406;9.690;2023-04-07T00:21:32;4.50;99.90
64634;DHT22;51043;52.406;9.690;2023-04-07T00:24:02;4.40;99.90
64634;DHT22;51043;52.406;9.690;2023-04-07T00:26:30;4.40;99.90
64634;DHT22;51043;52.406;9.690;2023-04-07T00:28:58;4.40;99.90
64634;DHT22;51043;52.406;9.690;2023-04-07T00:31:26;4.30;99.90
64634;DHT22;51043;52.406;9.690;2023-04-07T00:33:54;4.20;99.90
64634;DHT22;51043;52.406;9.690;2023-04-07T00:36:25;4.20;99.90
64634;DHT22;51043;52.406;9.690;2023-04-07T00:38:54;4.10;99.90
64634;DHT22;51043;52.406;9.690;2023-04-07T00:41:22;4.00;99.90
64634;DHT22;51043;52.406;9.690;2023-04-07T00:43:50;3.90;99.90
64634;DHT22;51043;52.406;9.690;2023-04-07T00:46:21;3.90;99.90
64634;DHT22;51043;52.406;9.690;2023-04-07T00:48:50;3.80;99.90
64634;DHT22;51043;52.406;9.690;2023-04-07T00:51:19;3.70;99.90
64634;DHT22;51043;52.406;9.690;2023-04-07T00:53:49;3.60;99.90
64634;DHT22;51043;52.406;9.690;2023-04-07T00:56:17;3.50;99.90
64634;DHT22;51043;52.406;9.690;2023-04-07T00:58:45;3.50;99.90
64634;DHT22;51043;52.406;9.690;2023-04-07T01:01:18;3.50;99.90
64634;DHT22;51043;52.406;9.690;2023-04-07T01:03:52;3.50;99.90
64634;DHT22;51043;52.406;9.690;2023-04-07T01:06:27;3.60;99.90
64634;DHT22;51043;52.406;9.690;2023-04-07T01:09:02;3.60;99.90
64634;DHT22;51043;52.406;9.690;2023-04-07T01:11:38;3.60;99.90
64634;DHT22;51043;52.406;9.690;2023-04-07T01:14:10;3.60;99.90
64634;DHT22;51043;52.406;9.690;2023-04-07T01:16:45;3.60;99.90
64634;DHT22;51043;52.406;9.690;2023-04-07T01:19:32;3.40;99.90
64634;DHT22;51043;52.406;9.690;2023-04-07T01:22:03;3.40;99.90
64634;DHT22;51043;52.406;9.690;2023-04-07T01:24:55;3.40;99.90
64634;DHT22;51043;52.406;9.690;2023-04-07T01:27:35;3.30;99.90
64634;DHT22;51043;52.406;9.690;2023-04-07T01:30:09;3.30;99.90
64634;DHT22;51043;52.406;9.690;2023-04-07T01:32:39;3.30;99.90
64634;DHT22;51043;52.406;9.690;2023-04-07T01:35:10;3.30;99.90
64634;DHT22;51043;52.406;9.690;2023-04-07T01:37:40;3.30;99.90
64634;DHT22;51043;52.406;9.690;2023-04-07T01:40:09;3.30;99.90
64634;DHT22;51043;52.406;9.690;2023-04-07T01:42:38;3.30;99.90
64634;DHT22;51043;52.406;9.690;2023-04-07T01:45:10;3.30;99.90
64634;DHT22;51043;52.406;9.690;2023-04-07T01:47:39;3.30;99.90
64634;DHT22;51043;52.406;9.690;2023-04-07T01:50:09;3.30;99.90
64634;DHT22;51043;52.406;9.690;2023-04-07T01:52:38;3.30;99.90
64634;DHT22;51043;52.406;9.690;2023-04-07T01:55:08;3.30;99.90
64634;DHT22;51043;52.406;9.690;2023-04-07T01:57:43;3.30;99.90
64634;DHT22;51043;52.406;9.690;2023-04-07T02:00:17;3.10;99.90
64634;DHT22;51043;52.406;9.690;2023-04-07T02:02:54;3.00;99.90
64634;DHT22;51043;52.406;9.690;2023-04-07T02:05:26;3.00;99.90
64634;DHT22;51043;52.406;9.690;2023-04-07T02:08:01;3.00;99.90
64634;DHT22;51043;52.406;9.690;2023-04-07T02:10:34;3.10;99.90
64634;DHT22;51043;52.406;9.690;2023-04-07T02:13:06;3.10;99.90
64634;DHT22;51043;52.406;9.690;2023-04-07T02:15:37;3.00;99.90
64634;DHT22;51043;52.406;9.690;2023-04-07T02:18:07;3.00;99.90
64634;DHT22;51043;52.406;9.690;2023-04-07T02:20:39;2.90;99.90
64634;DHT22;51043;52.406;9.690;2023-04-07T02:23:11;3.00;99.90
64634;DHT22;51043;52.406;9.690;2023-04-07T02:25:40;3.00;99.90
64634;DHT22;51043;52.406;9.690;2023-04-07T02:28:08;2.90;99.90
64634;DHT22;51043;52.406;9.690;2023-04-07T02:30:37;2.80;99.90
64634;DHT22;51043;52.406;9.690;2023-04-07T02:33:06;2.80;99.90
64634;DHT22;51043;52.406;9.690;2023-04-07T02:35:35;2.70;99.90
64634;DHT22;51043;52.406;9.690;2023-04-07T02:38:03;2.70;99.90
64634;DHT22;51043;52.406;9.690;2023-04-07T02:40:34;2.80;99.90
64634;DHT22;51043;52.406;9.690;2023-04-07T02:43:03;2.60;99.90
64634;DHT22;51043;52.406;9.690;2023-04-07T02:45:31;2.50;99.90
64634;DHT22;51043;52.406;9.690;2023-04-07T02:48:00;2.40;99.90
64634;DHT22;51043;52.406;9.690;2023-04-07T02:50:28;2.30;99.90
64634;DHT22;51043;52.406;9.690;2023-04-07T02:52:57;2.20;99.90
64634;DHT22;51043;52.406;9.690;2023-04-07T02:55:25;2.10;99.90
64634;DHT22;51043;52.406;9.690;2023-04-07T02:57:55;2.10;99.90
64634;DHT22;51043;52.406;9.690;2023-04-07T03:00:35;2.00;99.90
64634;DHT22;51043;52.406;9.690;2023-04-07T03:03:21;2.00;99.90
64634;DHT22;51043;52.406;9.690;2023-04-07T03:06:05;2.00;99.90
64634;DHT22;51043;52.406;9.690;2023-04-07T03:08:44;1.90;99.90
64634;DHT22;51043;52.406;9.690;2023-04-07T03:11:12;1.90;99.90
64634;DHT22;51043;52.406;9.690;2023-04-07T03:13:41;1.90;99.90
64634;DHT22;51043;52.406;9.690;2023-04-07T03:16:09;1.90;99.90
64634;DHT22;51043;52.406;9.690;2023-04-07T03:18:53;1.90;99.90
64634;DHT22;51043;52.406;9.690;2023-04-07T03:21:21;1.80;99.90
64634;DHT22;51043;52.406;9.690;2023-04-07T03:23:49;1.70;99.90
64634;DHT22;51043;52.406;9.690;2023-04-07T03:26:17;1.60;99.90
64634;DHT22;51043;52.406;9.690;2023-04-07T03:28:45;1.60;99.90
64634;DHT22;51043;52.406;9.690;2023-04-07T03:31:14;1.60;99.90
64634;DHT22;51043;52.406;9.690;2023-04-07T03:33:42;1.70;99.90
64634;DHT22;51043;52.406;9.690;2023-04-07T03:36:12;1.80;99.90
64634;DHT22;51043;52.406;9.690;2023-04-07T03:38:41;1.90;99.90
64634;DHT22;51043;52.406;9.690;2023-04-07T03:41:09;1.90;99.90
64634;DHT22;51043;52.406;9.690;2023-04-07T03:43:37;2.00;99.90
64634;DHT22;51043;52.406;9.690;2023-04-07T03:46:05;2.10;99.90
64634;DHT22;51043;52.406;9.690;2023-04-07T03:48:33;2.20;99.90
64634;DHT22;51043;52.406;9.690;2023-04-07T03:51:05;2.20;99.90
64634;DHT22;51043;52.406;9.690;2023-04-07T03:53:35;2.30;99.90
64634;DHT22;51043;52.406;9.690;2023-04-07T03:56:15;2.30;99.90
64634;DHT22;51043;52.406;9.690;2023-04-07T03:58:46;2.30;99.90
64634;DHT22;51043;52.406;9.690;2023-04-07T04:01:22;2.20;99.90
64634;DHT22;51043;52.406;9.690;2023-04-07T04:03:52;2.20;99.90
64634;DHT22;51043;52.406;9.690;2023-04-07T04:06:25;2.30;99.90
64634;DHT22;51043;52.406;9.690;2023-04-07T04:09:01;2.30;99.90
64634;DHT22;51043;52.406;9.690;2023-04-07T04:11:33;2.30;99.90
64634;DHT22;51043;52.406;9.690;2023-04-07T04:14:03;2.30;99.90
64634;DHT22;51043;52.406;9.690;2023-04-07T04:16:34;2.30;99.90
64634;DHT22;51043;52.406;9.690;2023-04-07T04:19:08;2.30;99.90
64634;DHT22;51043;52.406;9.690;2023-04-07T04:21:36;2.40;99.90
64634;DHT22;51043;52.406;9.690;2023-04-07T04:24:06;2.50;99.90
64634;DHT22;51043;52.406;9.690;2023-04-07T04:26:36;2.40;99.90
64634;DHT22;51043;52.406;9.690;2023-04-07T04:29:09;2.40;99.90
64634;DHT22;51043;52.406;9.690;2023-04-07T04:31:40;2.40;99.90
64634;DHT22;51043;52.406;9.690;2023-04-07T04:34:10;2.30;99.90
64634;DHT22;51043;52.406;9.690;2023-04-07T04:36:40;2.30;99.90
64634;DHT22;51043;52.406;9.690;2023-04-07T04:39:11;2.20;99.90
64634;DHT22;51043;52.406;9.690;2023-04-07T04:41:39;2.20;99.90
64634;DHT22;51043;52.406;9.690;2023-04-07T04:44:09;2.40;99.90
64634;DHT22;51043;52.406;9.690;2023-04-07T04:46:40;2.40;99.90
64634;DHT22;51043;52.406;9.690;2023-04-07T04:49:08;2.40;99.90
64634;DHT22;51043;52.406;9.690;2023-04-07T04:51:37;2.40;99.90
64634;DHT22;51043;52.406;9.690;2023-04-07T04:54:14;2.50;99.90
64634;DHT22;51043;52.406;9.690;2023-04-07T04:56:43;2.50;99.90
64634;DHT22;51043;52.406;9.690;2023-04-07T04:59:12;2.40;99.90
64634;DHT22;51043;52.406;9.690;2023-04-07T05:01:50;2.40;99.90
64634;DHT22;51043;52.406;9.690;2023-04-07T05:04:19;2.30;99.90
64634;DHT22;51043;52.406;9.690;2023-04-07T05:06:55;2.40;99.90
64634;DHT22;51043;52.406;9.690;2023-04-07T05:09:28;2.30;99.90
64634;DHT22;51043;52.406;9.690;2023-04-07T05:11:57;2.40;99.90
64634;DHT22;51043;52.406;9.690;2023-04-07T05:14:26;2.40;99.90
64634;DHT22;51043;52.406;9.690;2023-04-07T05:17:02;2.50;99.90
64634;DHT22;51043;52.406;9.690;2023-04-07T05:19:30;2.40;99.90
64634;DHT22;51043;52.406;9.690;2023-04-07T05:22:13;2.40;99.90
64634;DHT22;51043;52.406;9.690;2023-04-07T05:24:46;2.40;99.90
64634;DHT22;51043;52.406;9.690;2023-04-07T05:27:14;2.40;99.90
64634;DHT22;51043;52.406;9.690;2023-04-07T05:29:44;2.40;99.90
64634;DHT22;51043;52.406;9.690;2023-04-07T05:32:21;2.40;99.90
64634;DHT22;51043;52.406;9.690;2023-04-07T05:34:50;2.40;99.90
64634;DHT22;51043;52.406;9.690;2023-04-07T05:37:20;2.50;99.90
64634;DHT22;51043;52.406;9.690;2023-04-07T05:39:50;2.60;99.90
64634;DHT22;51043;52.406;9.690;2023-04-07T05:42:18;2.60;99.90
64634;DHT22;51043;52.406;9.690;2023-04-07T05:44:50;2.70;99.90
64634;DHT22;51043;52.406;9.690;2023-04-07T05:47:20;2.80;99.90
64634;DHT22;51043;52.406;9.690;2023-04-07T05:49:51;3.00;99.90
64634;DHT22;51043;52.406;9.690;2023-04-07T05:52:20;3.10;99.90
64634;DHT22;51043;52.406;9.690;2023-04-07T05:54:56;3.20;99.90
64634;DHT22;51043;52.406;9.690;2023-04-07T05:57:27;3.30;99.90
64634;DHT22;51043;52.406;9.690;2023-04-07T05:59:58;3.50;99.90
64634;DHT22;51043;52.406;9.690;2023-04-07T06:02:26;3.60;99.90
64634;DHT22;51043;52.406;9.690;2023-04-07T06:04:55;3.80;99.90
64634;DHT22;51043;52.406;9.690;2023-04-07T06:07:24;4.00;99.90
64634;DHT22;51043;52.406;9.690;2023-04-07T06:09:52;4.10;99.90
64634;DHT22;51043;52.406;9.690;2023-04-07T06:12:22;4.30;99.90
64634;DHT22;51043;52.406;9.690;2023-04-07T06:14:52;4.40;99.90
64634;DHT22;51043;52.406;9.690;2023-04-07T06:17:21;4.60;99.90
64634;DHT22;51043;52.406;9.690;2023-04-07T06:19:49;4.80;99.90
64634;DHT22;51043;52.406;9.690;2023-04-07T06:22:17;4.90;99.90
64634;DHT22;51043;52.406;9.690;2023-04-07T06:24:45;5.10;99.90
64634;DHT22;51043;52.406;9.690;2023-04-07T06:27:13;5.30;99.90
64634;DHT22;51043;52.406;9.690;2023-04-07T06:29:43;5.50;99.90
64634;DHT22;51043;52.406;9.690;2023-04-07T06:32:11;5.70;99.90
64634;DHT22;51043;52.406;9.690;2023-04-07T06:34:40;5.90;99.90
64634;DHT22;51043;52.406;9.690;2023-04-07T06:37:08;6.00;99.90
64634;DHT22;51043;52.406;9.690;2023-04-07T06:39:36;6.10;99.90
64634;DHT22;51043;52.406;9.690;2023-04-07T06:42:04;6.20;99.90
64634;DHT22;51043;52.406;9.690;2023-04-07T06:44:36;6.40;99.90
64634;DHT22;51043;52.406;9.690;2023-04-07T06:47:06;6.50;99.90
64634;DHT22;51043;52.406;9.690;2023-04-07T06:49:34;6.70;99.90
64634;DHT22;51043;52.406;9.690;2023-04-07T06:52:03;6.90;99.90
64634;DHT22;51043;52.406;9.690;2023-04-07T06:54:31;7.00;99.90
64634;DHT22;51043;52.406;9.690;2023-04-07T06:56:59;7.10;99.90
64634;DHT22;51043;52.406;9.690;2023-04-07T06:59:28;7.10;99.90
64634;DHT22;51043;52.406;9.690;2023-04-07T07:01:56;6.90;99.90
64634;DHT22;51043;52.406;9.690;2023-04-07T07:04:25;7.00;99.90
64634;DHT22;51043;52.406;9.690;2023-04-07T07:07:02;7.20;99.90
64634;DHT22;51043;52.406;9.690;2023-04-07T07:09:30;7.40;99.90
64634;DHT22;51043;52.406;9.690;2023-04-07T07:12:00;7.60;99.90
64634;DHT22;51043;52.406;9.690;2023-04-07T07:14:29;7.80;99.90
64634;DHT22;51043;52.406;9.690;2023-04-07T07:16:57;8.30;99.90
64634;DHT22;51043;52.406;9.690;2023-04-07T07:19:27;9.10;99.90
64634;DHT22;51043;52.406;9.690;2023-04-07T07:21:55;9.90;97.00
64634;DHT22;51043;52.406;9.690;2023-04-07T07:24:23;10.20;93.40
64634;DHT22;51043;52.406;9.690;2023-04-07T07:26:51;10.10;91.90
64634;DHT22;51043;52.406;9.690;2023-04-07T07:29:19;10.20;91.90
64634;DHT22;51043;52.406;9.690;2023-04-07T07:31:47;10.50;91.20
64634;DHT22;51043;52.406;9.690;2023-04-07T07:34:15;10.60;90.10
64634;DHT22;51043;52.406;9.690;2023-04-07T07:36:44;10.70;87.90
64634;DHT22;51043;52.406;9.690;2023-04-07T07:39:12;10.90;85.60
64634;DHT22;51043;52.406;9.690;2023-04-07T07:41:40;11.00;82.20
64634;DHT22;51043;52.406;9.690;2023-04-07T07:44:09;11.40;80.60
64634;DHT22;51043;52.406;9.690;2023-04-07T07:46:37;12.10;77.10
64634;DHT22;51043;52.406;9.690;2023-04-07T07:49:05;13.20;68.80
64634;DHT22;51043;52.406;9.690;2023-04-07T07:51:34;14.10;63.70
64634;DHT22;51043;52.406;9.690;2023-04-07T07:54:04;14.60;57.10
64634;DHT22;51043;52.406;9.690;2023-04-07T07:56:32;14.60;55.40
64634;DHT22;51043;52.406;9.690;2023-04-07T07:59:00;14.60;55.30
64634;DHT22;51043;52.406;9.690;2023-04-07T08:01:28;14.50;54.00
64634;DHT22;51043;52.406;9.690;2023-04-07T08:03:56;14.90;53.30
64634;DHT22;51043;52.406;9.690;2023-04-07T08:06:24;15.60;53.20
64634;DHT22;51043;52.406;9.690;2023-04-07T08:08:52;16.40;49.90
64634;DHT22;51043;52.406;9.690;2023-04-07T08:11:22;17.50;48.30
64634;DHT22;51043;52.406;9.690;2023-04-07T08:13:50;17.50;46.50
64634;DHT22;51043;52.406;9.690;2023-04-07T08:16:19;18.70;44.50
64634;DHT22;51043;52.406;9.690;2023-04-07T08:18:48;19.40;42.20
64634;DHT22;51043;52.406;9.690;2023-04-07T08:21:16;19.90;40.20
64634;DHT22;51043;52.406;9.690;2023-04-07T08:23:43;19.90;39.00
64634;DHT22;51043;52.406;9.690;2023-04-07T08:26:12;20.10;39.50
64634;DHT22;51043;52.406;9.690;2023-04-07T08:28:41;20.30;38.20
64634;DHT22;51043;52.406;9.690;2023-04-07T08:31:09;18.80;38.50
64634;DHT22;51043;52.406;9.690;2023-04-07T08:33:38;18.70;38.80
64634;DHT22;51043;52.406;9.690;2023-04-07T08:36:06;19.20;37.80
64634;DHT22;51043;52.406;9.690;2023-04-07T08:38:34;19.40;37.90
64634;DHT22;51043;52.406;9.690;2023-04-07T08:41:06;19.50;38.10
64634;DHT22;51043;52.406;9.690;2023-04-07T08:43:38;19.70;38.10
64634;DHT22;51043;52.406;9.690;2023-04-07T08:46:09;19.80;36.60
64634;DHT22;51043;52.406;9.690;2023-04-07T08:48:37;19.40;36.10
64634;DHT22;51043;52.406;9.690;2023-04-07T08:51:07;19.70;35.80
64634;DHT22;51043;52.406;9.690;2023-04-07T08:53:40;20.30;35.80
64634;DHT22;51043;52.406;9.690;2023-04-07T08:56:10;20.10;36.70
64634;DHT22;51043;52.406;9.690;2023-04-07T08:58:39;20.50;35.40
64634;DHT22;51043;52.406;9.690;2023-04-07T09:01:08;20.80;34.90
64634;DHT22;51043;52.406;9.690;2023-04-07T09:03:37;20.50;34.20
64634;DHT22;51043;52.406;9.690;2023-04-07T09:06:06;21.00;33.60
64634;DHT22;51043;52.406;9.690;2023-04-07T09:08:34;20.90;33.30
64634;DHT22;51043;52.406;9.690;2023-04-07T09:11:02;20.80;34.10
64634;DHT22;51043;52.406;9.690;2023-04-07T09:13:30;20.70;35.20
64634;DHT22;51043;52.406;9.690;2023-04-07T09:16:01;21.00;33.70
64634;DHT22;51043;52.406;9.690;2023-04-07T09:18:30;20.80;34.10
64634;DHT22;51043;52.406;9.690;2023-04-07T09:21:00;20.50;33.60
64634;DHT22;51043;52.406;9.690;2023-04-07T09:23:29;20.50;33.20
64634;DHT22;51043;52.406;9.690;2023-04-07T09:25:58;20.40;33.30
64634;DHT22;51043;52.406;9.690;2023-04-07T09:28:41;20.50;33.10
64634;DHT22;51043;52.406;9.690;2023-04-07T09:31:09;20.30;32.80
64634;DHT22;51043;52.406;9.690;2023-04-07T09:33:38;20.90;33.80
64634;DHT22;51043;52.406;9.690;2023-04-07T09:36:07;21.70;34.60
64634;DHT22;51043;52.406;9.690;2023-04-07T09:38:37;21.50;32.80
64634;DHT22;51043;52.406;9.690;2023-04-07T09:41:06;22.00;31.10
64634;DHT22;51043;52.406;9.690;2023-04-07T09:43:35;21.70;30.40
64634;DHT22;51043;52.406;9.690;2023-04-07T09:46:15;21.90;30.60
64634;DHT22;51043;52.406;9.690;2023-04-07T09:48:45;21.90;31.10
64634;DHT22;51043;52.406;9.690;2023-04-07T09:51:15;22.10;30.30
64634;DHT22;51043;52.406;9.690;2023-04-07T09:53:45;22.10;30.00
64634;DHT22;51043;52.406;9.690;2023-04-07T09:56:16;21.30;30.30
64634;DHT22;51043;52.406;9.690;2023-04-07T09:58:45;21.20;30.60
64634;DHT22;51043;52.406;9.690;2023-04-07T10:01:15;20.90;31.10
64634;DHT22;51043;52.406;9.690;2023-04-07T10:03:46;20.80;30.70
64634;DHT22;51043;52.406;9.690;2023-04-07T10:06:14;20.50;31.70
64634;DHT22;51043;52.406;9.690;2023-04-07T10:08:43;20.60;32.10
64634;DHT22;51043;52.406;9.690;2023-04-07T10:11:11;21.10;31.70
64634;DHT22;51043;52.406;9.690;2023-04-07T10:13:40;21.80;31.90
64634;DHT22;51043;52.406;9.690;2023-04-07T10:16:08;22.10;32.10
64634;DHT22;51043;52.406;9.690;2023-04-07T10:18:38;21.90;31.10
64634;DHT22;51043;52.406;9.690;2023-04-07T10:21:09;21.70;31.60
64634;DHT22;51043;52.406;9.690;2023-04-07T10:23:48;21.90;32.10
64634;DHT22;51043;52.406;9.690;2023-04-07T10:26:22;22.20;31.90
64634;DHT22;51043;52.406;9.690;2023-04-07T10:28:58;22.40;31.00
64634;DHT22;51043;52.406;9.690;2023-04-07T10:31:27;22.70;31.80
64634;DHT22;51043;52.406;9.690;2023-04-07T10:33:55;23.10;30.60
64634;DHT22;51043;52.406;9.690;2023-04-07T10:36:25;22.90;30.00
64634;DHT22;51043;52.406;9.690;2023-04-07T10:39:19;23.00;29.90
64634;DHT22;51043;52.406;9.690;2023-04-07T10:41:47;23.30;29.40
64634;DHT22;51043;52.406;9.690;2023-04-07T10:44:45;24.10;29.10
64634;DHT22;51043;52.406;9.690;2023-04-07T10:47:13;24.60;29.30
64634;DHT22;51043;52.406;9.690;2023-04-07T10:50:16;24.40;28.90
64634;DHT22;51043;52.406;9.690;2023-04-07T10:52:47;23.70;29.30
64634;DHT22;51043;52.406;9.690;2023-04-07T10:55:33;23.20;28.90
64634;DHT22;51043;52.406;9.690;2023-04-07T10:58:29;23.70;29.10
64634;DHT22;51043;52.406;9.690;2023-04-07T11:01:17;23.30;28.70
64634;DHT22;51043;52.406;9.690;2023-04-07T11:04:02;22.90;29.50
64634;DHT22;51043;52.406;9.690;2023-04-07T11:06:32;23.20;28.90
64634;DHT22;51043;52.406;9.690;2023-04-07T11:09:01;23.50;28.90
64634;DHT22;51043;52.406;9.690;2023-04-07T11:11:40;23.10;28.60
64634;DHT22;51043;52.406;9.690;2023-04-07T11:14:08;23.30;29.40
64634;DHT22;51043;52.406;9.690;2023-04-07T11:16:38;22.30;29.30
64634;DHT22;51043;52.406;9.690;2023-04-07T11:19:07;22.10;28.90
64634;DHT22;51043;52.406;9.690;2023-04-07T11:21:35;22.00;28.80
64634;DHT22;51043;52.406;9.690;2023-04-07T11:24:05;22.50;29.60
64634;DHT22;51043;52.406;9.690;2023-04-07T11:26:37;23.30;29.10
64634;DHT22;51043;52.406;9.690;2023-04-07T11:29:05;24.20;28.50
64634;DHT22;51043;52.406;9.690;2023-04-07T11:31:34;24.40;27.70
64634;DHT22;51043;52.406;9.690;2023-04-07T11:34:03;24.50;28.50
64634;DHT22;51043;52.406;9.690;2023-04-07T11:36:32;25.00;27.60
64634;DHT22;51043;52.406;9.690;2023-04-07T11:39:01;25.00;27.50
64634;DHT22;51043;52.406;9.690;2023-04-07T11:41:32;25.10;27.10
64634;DHT22;51043;52.406;9.690;2023-04-07T11:44:07;25.10;27.50
64634;DHT22;51043;52.406;9.690;2023-04-07T11:46:35;25.60;26.70
64634;DHT22;51043;52.406;9.690;2023-04-07T11:49:11;25.80;27.20
64634;DHT22;51043;52.406;9.690;2023-04-07T11:51:41;26.10;26.50
64634;DHT22;51043;52.406;9.690;2023-04-07T11:54:10;25.30;26.90
64634;DHT22;51043;52.406;9.690;2023-04-07T11:56:44;24.40;27.50
64634;DHT22;51043;52.406;9.690;2023-04-07T11:59:20;25.10;27.20
64634;DHT22;51043;52.406;9.690;2023-04-07T12:01:50;25.90;26.90
64634;DHT22;51043;52.406;9.690;2023-04-07T12:04:20;25.90;26.60
64634;DHT22;51043;52.406;9.690;2023-04-07T12:06:49;25.80;25.80
64634;DHT22;51043;52.406;9.690;2023-04-07T12:09:29;25.00;27.00
64634;DHT22;51043;52.406;9.690;2023-04-07T12:11:59;25.40;27.10
64634;DHT22;51043;52.406;9.690;2023-04-07T12:14:27;25.20;26.80
64634;DHT22;51043;52.406;9.690;2023-04-07T12:16:55;25.30;26.90
64634;DHT22;51043;52.406;9.690;2023-04-07T12:19:25;25.60;26.50
64634;DHT22;51043;52.406;9.690;2023-04-07T12:21:54;25.60;26.60
64634;DHT22;51043;52.406;9.690;2023-04-07T12:24:22;25.10;26.20
64634;DHT22;51043;52.406;9.690;2023-04-07T12:26:50;24.70;27.00
64634;DHT22;51043;52.406;9.690;2023-04-07T12:29:20;24.80;27.10
64634;DHT22;51043;52.406;9.690;2023-04-07T12:31:47;24.50;27.40
64634;DHT22;51043;52.406;9.690;2023-04-07T12:34:16;24.10;27.30
64634;DHT22;51043;52.406;9.690;2023-04-07T12:36:44;24.10;27.50
64634;DHT22;51043;52.406;9.690;2023-04-07T12:39:12;24.00;27.50
64634;DHT22;51043;52.406;9.690;2023-04-07T12:41:40;23.60;27.40
64634;DHT22;51043;52.406;9.690;2023-04-07T12:44:10;23.40;27.10
64634;DHT22;51043;52.406;9.690;2023-04-07T12:46:39;22.80;28.10
64634;DHT22;51043;52.406;9.690;2023-04-07T12:49:08;23.10;27.80
64634;DHT22;51043;52.406;9.690;2023-04-07T12:51:36;23.60;27.60
64634;DHT22;51043;52.406;9.690;2023-04-07T12:54:05;22.70;27.60
64634;DHT22;51043;52.406;9.690;2023-04-07T12:56:33;23.20;28.50
64634;DHT22;51043;52.406;9.690;2023-04-07T12:59:01;23.40;28.00
64634;DHT22;51043;52.406;9.690;2023-04-07T13:01:30;23.10;27.80
64634;DHT22;51043;52.406;9.690;2023-04-07T13:04:00;23.80;27.00
64634;DHT22;51043;52.406;9.690;2023-04-07T13:06:28;23.80;27.20
64634;DHT22;51043;52.406;9.690;2023-04-07T13:08:57;23.30;27.30
64634;DHT22;51043;52.406;9.690;2023-04-07T13:11:25;23.00;27.70
64634;DHT22;51043;52.406;9.690;2023-04-07T13:13:53;22.60;29.00
64634;DHT22;51043;52.406;9.690;2023-04-07T13:16:22;22.00;28.60
64634;DHT22;51043;52.406;9.690;2023-04-07T13:18:50;20.80;29.20
64634;DHT22;51043;52.406;9.690;2023-04-07T13:21:19;19.50;30.70
64634;DHT22;51043;52.406;9.690;2023-04-07T13:24:06;18.20;31.60
64634;DHT22;51043;52.406;9.690;2023-04-07T13:26:34;17.70;32.40
64634;DHT22;51043;52.406;9.690;2023-04-07T13:29:02;17.20;33.60
64634;DHT22;51043;52.406;9.690;2023-04-07T13:31:30;16.90;34.50
64634;DHT22;51043;52.406;9.690;2023-04-07T13:33:58;16.80;34.60
64634;DHT22;51043;52.406;9.690;2023-04-07T13:36:27;16.60;36.50
64634;DHT22;51043;52.406;9.690;2023-04-07T13:38:56;16.30;36.40
64634;DHT22;51043;52.406;9.690;2023-04-07T13:41:24;16.40;35.70
64634;DHT22;51043;52.406;9.690;2023-04-07T13:43:52;16.40;35.80
64634;DHT22;51043;52.406;9.690;2023-04-07T13:46:20;16.20;36.60
64634;DHT22;51043;52.406;9.690;2023-04-07T13:48:53;16.10;37.30
64634;DHT22;51043;52.406;9.690;2023-04-07T13:51:21;15.80;37.00
64634;DHT22;51043;52.406;9.690;2023-04-07T13:53:51;15.60;38.90
64634;DHT22;51043;52.406;9.690;2023-04-07T13:56:19;15.40;36.80
64634;DHT22;51043;52.406;9.690;2023-04-07T13:58:47;15.30;38.20
64634;DHT22;51043;52.406;9.690;2023-04-07T14:01:16;15.20;38.50
64634;DHT22;51043;52.406;9.690;2023-04-07T14:03:44;15.10;38.80
64634;DHT22;51043;52.406;9.690;2023-04-07T14:06:12;14.90;38.60
64634;DHT22;51043;52.406;9.690;2023-04-07T14:08:40;14.70;39.90
64634;DHT22;51043;52.406;9.690;2023-04-07T14:11:09;14.60;39.00
64634;DHT22;51043;52.406;9.690;2023-04-07T14:13:37;14.50;39.00
64634;DHT22;51043;52.406;9.690;2023-04-07T14:16:05;14.40;38.40
64634;DHT22;51043;52.406;9.690;2023-04-07T14:18:33;14.30;39.30
64634;DHT22;51043;52.406;9.690;2023-04-07T14:21:03;14.20;39.80
64634;DHT22;51043;52.406;9.690;2023-04-07T14:23:30;14.10;39.70
64634;DHT22;51043;52.406;9.690;2023-04-07T14:26:02;14.00;39.80
64634;DHT22;51043;52.406;9.690;2023-04-07T14:28:31;13.90;40.30
64634;DHT22;51043;52.406;9.690;2023-04-07T14:30:59;14.00;39.30
64634;DHT22;51043;52.406;9.690;2023-04-07T14:33:27;13.80;39.10
64634;DHT22;51043;52.406;9.690;2023-04-07T14:35:58;13.70;39.70
64634;DHT22;51043;52.406;9.690;2023-04-07T14:38:27;13.70;40.50
64634;DHT22;51043;52.406;9.690;2023-04-07T14:40:55;13.60;40.10
64634;DHT22;51043;52.406;9.690;2023-04-07T14:43:25;13.70;40.30
64634;DHT22;51043;52.406;9.690;2023-04-07T14:45:54;13.50;40.20
64634;DHT22;51043;52.406;9.690;2023-04-07T14:48:23;13.60;40.90
64634;DHT22;51043;52.406;9.690;2023-04-07T14:50:51;13.50;39.70
64634;DHT22;51043;52.406;9.690;2023-04-07T14:53:24;13.40;39.80
64634;DHT22;51043;52.406;9.690;2023-04-07T14:55:54;13.30;39.80
64634;DHT22;51043;52.406;9.690;2023-04-07T14:58:22;13.30;40.00
64634;DHT22;51043;52.406;9.690;2023-04-07T15:00:50;13.20;40.30
64634;DHT22;51043;52.406;9.690;2023-04-07T15:03:19;13.30;39.40
64634;DHT22;51043;52.406;9.690;2023-04-07T15:05:47;13.30;39.00
64634;DHT22;51043;52.406;9.690;2023-04-07T15:08:15;13.20;39.90
64634;DHT22;51043;52.406;9.690;2023-04-07T15:10:43;13.10;39.00
64634;DHT22;51043;52.406;9.690;2023-04-07T15:13:11;13.10;39.90
64634;DHT22;51043;52.406;9.690;2023-04-07T15:15:39;13.00;39.60
64634;DHT22;51043;52.406;9.690;2023-04-07T15:18:07;13.00;39.30
64634;DHT22;51043;52.406;9.690;2023-04-07T15:20:36;12.90;39.30
64634;DHT22;51043;52.406;9.690;2023-04-07T15:23:04;12.80;39.90
64634;DHT22;51043;52.406;9.690;2023-04-07T15:25:32;12.90;39.00
64634;DHT22;51043;52.406;9.690;2023-04-07T15:28:00;12.80;38.20
64634;DHT22;51043;52.406;9.690;2023-04-07T15:30:28;12.80;37.80
64634;DHT22;51043;52.406;9.690;2023-04-07T15:32:59;12.80;38.60
64634;DHT22;51043;52.406;9.690;2023-04-07T15:35:27;12.80;39.20
64634;DHT22;51043;52.406;9.690;2023-04-07T15:37:56;12.90;39.00
64634;DHT22;51043;52.406;9.690;2023-04-07T15:40:24;13.00;39.50
64634;DHT22;51043;52.406;9.690;2023-04-07T15:42:52;12.90;39.90
64634;DHT22;51043;52.406;9.690;2023-04-07T15:45:20;12.90;39.70
64634;DHT22;51043;52.406;9.690;2023-04-07T15:47:48;12.90;38.70
64634;DHT22;51043;52.406;9.690;2023-04-07T15:50:16;12.80;39.70
64634;DHT22;51043;52.406;9.690;2023-04-07T15:52:44;12.70;39.40
64634;DHT22;51043;52.406;9.690;2023-04-07T15:55:13;12.60;40.20
64634;DHT22;51043;52.406;9.690;2023-04-07T15:57:41;12.60;40.30